createdAt,value
2022-11-30T00:02:28.220Z,100.00
2022-11-30T00:05:35.066Z,100.00
2022-11-30T00:08:41.976Z,100.00
2022-11-30T00:11:47.862Z,100.00
2022-11-30T00:14:53.044Z,100.00
2022-11-30T00:18:01.088Z,100.00
2022-11-30T00:21:11.895Z,100.00
2022-11-30T00:24:16.536Z,100.00
2022-11-30T00:27:24.090Z,100.00
2022-11-30T00:30:30.770Z,100.00
2022-11-30T00:33:39.198Z,100.00
2022-11-30T00:36:46.954Z,100.00
2022-11-30T00:39:55.894Z,100.00
2022-11-30T00:43:04.329Z,100.00
2022-11-30T00:46:11.929Z,100.00
2022-11-30T00:49:19.934Z,100.00
2022-11-30T00:52:26.765Z,100.00
2022-11-30T00:55:36.713Z,100.00
2022-11-30T00:58:44.717Z,100.00
2022-11-30T01:01:57.632Z,100.00
2022-11-30T01:05:07.026Z,100.00
2022-11-30T01:08:16.341Z,100.00
2022-11-30T01:11:25.144Z,100.00
2022-11-30T01:14:32.612Z,100.00
2022-11-30T01:17:38.510Z,100.00
2022-11-30T01:20:45.090Z,100.00
2022-11-30T01:23:52.628Z,100.00
2022-11-30T01:27:04.313Z,100.00
2022-11-30T01:30:10.221Z,100.00
2022-11-30T01:33:22.653Z,100.00
2022-11-30T01:36:30.540Z,100.00
2022-11-30T01:39:37.657Z,100.00
2022-11-30T01:42:47.483Z,100.00
2022-11-30T01:46:00.998Z,100.00
2022-11-30T01:49:12.692Z,100.00
2022-11-30T01:52:25.236Z,100.00
2022-11-30T01:55:36.849Z,100.00
2022-11-30T01:58:44.717Z,100.00
2022-11-30T02:01:54.884Z,100.00
2022-11-30T02:05:02.677Z,100.00
2022-11-30T02:08:10.399Z,100.00
2022-11-30T02:11:18.281Z,100.00
2022-11-30T02:14:25.063Z,100.00
2022-11-30T02:17:39.156Z,100.00
2022-11-30T02:20:47.218Z,100.00
2022-11-30T02:24:22.304Z,100.00
2022-11-30T02:27:37.681Z,100.00
2022-11-30T02:30:49.627Z,100.00
2022-11-30T02:33:58.344Z,100.00
2022-11-30T02:37:07.109Z,100.00
2022-11-30T02:40:17.869Z,100.00
2022-11-30T02:43:28.625Z,100.00
2022-11-30T02:46:59.434Z,100.00
2022-11-30T02:50:09.366Z,100.00
2022-11-30T02:53:17.135Z,100.00
2022-11-30T02:56:25.221Z,100.00
2022-11-30T02:59:32.344Z,100.00
2022-11-30T03:02:40.887Z,100.00
2022-11-30T03:05:48.435Z,100.00
2022-11-30T03:09:00.319Z,100.00
2022-11-30T03:12:06.943Z,100.00
2022-11-30T03:15:13.881Z,100.00
2022-11-30T03:18:22.433Z,100.00
2022-11-30T03:21:29.353Z,100.00
2022-11-30T03:24:35.168Z,100.00
2022-11-30T03:27:42.340Z,100.00
2022-11-30T03:30:54.267Z,100.00
2022-11-30T03:34:04.647Z,100.00
2022-11-30T03:37:12.955Z,100.00
2022-11-30T03:40:21.419Z,100.00
2022-11-30T03:43:29.111Z,100.00
2022-11-30T03:46:36.247Z,100.00
2022-11-30T03:49:42.882Z,100.00
2022-11-30T03:52:51.145Z,100.00
2022-11-30T03:56:05.069Z,100.00
2022-11-30T03:59:12.713Z,100.00
2022-11-30T04:02:20.463Z,100.00
2022-11-30T04:05:29.019Z,100.00
2022-11-30T04:09:03.031Z,100.00
2022-11-30T04:12:10.489Z,100.00
2022-11-30T04:15:16.341Z,100.00
2022-11-30T04:18:25.488Z,100.00
2022-11-30T04:21:30.508Z,100.00
2022-11-30T04:24:39.672Z,100.00
2022-11-30T04:27:49.278Z,100.00
2022-11-30T04:31:03.161Z,100.00
2022-11-30T04:34:11.090Z,100.00
2022-11-30T04:37:19.675Z,100.00
2022-11-30T04:40:26.680Z,100.00
2022-11-30T04:43:35.773Z,100.00
2022-11-30T04:46:41.711Z,100.00
2022-11-30T04:49:50.872Z,100.00
2022-11-30T04:52:58.199Z,100.00
2022-11-30T04:56:10.608Z,100.00
2022-11-30T04:59:18.268Z,100.00
2022-11-30T05:02:26.682Z,100.00
2022-11-30T05:05:34.687Z,100.00
2022-11-30T05:08:41.496Z,100.00
2022-11-30T05:11:50.500Z,100.00
2022-11-30T05:14:59.082Z,100.00
2022-11-30T05:18:04.702Z,100.00
2022-11-30T05:21:12.720Z,100.00
2022-11-30T05:24:18.309Z,100.00
2022-11-30T05:27:28.697Z,100.00
2022-11-30T05:30:36.076Z,100.00
2022-11-30T05:33:46.085Z,100.00
2022-11-30T05:36:52.758Z,100.00
2022-11-30T05:40:04.872Z,100.00
2022-11-30T05:43:10.831Z,100.00
2022-11-30T05:46:17.797Z,100.00
2022-11-30T05:49:23.358Z,100.00
2022-11-30T05:52:28.866Z,100.00
2022-11-30T05:55:35.127Z,100.00
2022-11-30T05:58:40.365Z,100.00
2022-11-30T06:01:44.921Z,100.00
2022-11-30T06:04:48.746Z,100.00
2022-11-30T06:07:53.064Z,100.00
2022-11-30T06:11:00.347Z,100.00
2022-11-30T06:14:02.909Z,100.00
2022-11-30T06:17:05.945Z,100.00
2022-11-30T06:20:09.564Z,100.00
2022-11-30T06:23:12.370Z,100.00
2022-11-30T06:26:14.957Z,100.00
2022-11-30T06:29:17.753Z,100.00
2022-11-30T06:32:20.195Z,100.00
2022-11-30T06:35:22.954Z,100.00
2022-11-30T06:38:26.190Z,100.00
2022-11-30T06:41:29.153Z,100.00
2022-11-30T06:44:31.549Z,100.00
2022-11-30T06:47:34.682Z,100.00
2022-11-30T06:50:37.521Z,100.00
2022-11-30T06:53:43.666Z,100.00
2022-11-30T06:56:48.476Z,100.00
2022-11-30T06:59:52.737Z,100.00
2022-11-30T07:02:55.715Z,100.00
2022-11-30T07:05:58.738Z,100.00
2022-11-30T07:09:01.494Z,100.00
2022-11-30T07:12:05.126Z,100.00
2022-11-30T07:15:08.424Z,100.00
2022-11-30T07:18:12.440Z,100.00
2022-11-30T07:21:15.883Z,100.00
2022-11-30T07:24:38.983Z,100.00
2022-11-30T07:27:44.101Z,100.00
2022-11-30T07:30:48.463Z,100.00
2022-11-30T07:33:51.950Z,100.00
2022-11-30T07:36:56.948Z,100.00
2022-11-30T07:40:00.312Z,100.00
2022-11-30T07:43:04.859Z,100.00
2022-11-30T07:46:08.109Z,100.00
2022-11-30T07:49:13.565Z,100.00
2022-11-30T07:52:18.395Z,99.03
2022-11-30T07:55:24.642Z,98.54
2022-11-30T07:58:31.026Z,98.44
2022-11-30T08:01:35.034Z,97.22
2022-11-30T08:04:38.679Z,97.94
2022-11-30T08:07:43.383Z,98.78
2022-11-30T08:10:48.235Z,98.78
2022-11-30T08:13:52.596Z,100.00
2022-11-30T08:16:55.738Z,100.00
2022-11-30T08:20:00.185Z,99.76
2022-11-30T08:23:05.112Z,99.77
2022-11-30T08:26:10.123Z,98.55
2022-11-30T08:29:16.191Z,99.03
2022-11-30T08:32:21.168Z,98.73
2022-11-30T08:35:25.732Z,99.96
2022-11-30T08:38:29.398Z,98.77
2022-11-30T08:41:36.114Z,98.04
2022-11-30T08:44:40.991Z,95.59
2022-11-30T08:47:44.586Z,96.70
2022-11-30T08:50:49.194Z,97.61
2022-11-30T08:53:53.609Z,95.52
2022-11-30T08:56:57.390Z,96.95
2022-11-30T09:00:01.620Z,93.82
2022-11-30T09:03:05.975Z,92.43
2022-11-30T09:06:11.117Z,91.41
2022-11-30T09:09:14.686Z,91.71
2022-11-30T09:12:18.571Z,91.80
2022-11-30T09:15:21.854Z,91.42
2022-11-30T09:18:25.621Z,91.07
2022-11-30T09:21:29.155Z,90.83
2022-11-30T09:24:33.363Z,90.14
2022-11-30T09:27:36.066Z,90.04
2022-11-30T09:30:40.793Z,88.19
2022-11-30T09:33:46.268Z,87.14
2022-11-30T09:36:50.259Z,88.82
2022-11-30T09:39:53.802Z,88.50
2022-11-30T09:43:03.033Z,86.50
2022-11-30T09:46:07.333Z,85.70
2022-11-30T09:49:23.986Z,85.41
2022-11-30T09:52:33.383Z,84.02
2022-11-30T09:55:39.939Z,83.15
2022-11-30T09:58:48.049Z,82.07
2022-11-30T10:01:56.926Z,85.57
2022-11-30T10:05:01.278Z,85.26
2022-11-30T10:08:13.818Z,84.66
2022-11-30T10:11:38.172Z,84.77
2022-11-30T10:15:08.344Z,81.32
2022-11-30T10:18:16.095Z,81.94
2022-11-30T10:21:25.310Z,81.14
2022-11-30T10:24:41.348Z,80.25
2022-11-30T10:27:54.408Z,79.06
2022-11-30T10:31:01.009Z,78.17
2022-11-30T10:34:21.390Z,82.04
2022-11-30T10:37:33.619Z,78.70
2022-11-30T10:40:39.969Z,79.09
2022-11-30T10:43:54.485Z,77.45
2022-11-30T10:47:00.734Z,75.55
2022-11-30T10:50:06.263Z,75.86
2022-11-30T10:53:10.535Z,75.36
2022-11-30T10:56:14.739Z,75.45
2022-11-30T10:59:36.634Z,75.47
2022-11-30T11:02:40.081Z,75.17
2022-11-30T11:05:43.038Z,74.06
2022-11-30T11:08:47.255Z,73.81
2022-11-30T11:12:17.308Z,74.64
2022-11-30T11:15:23.438Z,74.78
2022-11-30T11:18:27.948Z,74.90
2022-11-30T11:21:32.878Z,74.22
2022-11-30T11:24:36.530Z,73.92
2022-11-30T11:27:44.877Z,74.03
2022-11-30T11:30:48.911Z,73.78
2022-11-30T11:33:54.385Z,74.12
2022-11-30T11:37:08.256Z,76.96
2022-11-30T11:40:16.335Z,75.97
2022-11-30T11:43:19.081Z,74.01
2022-11-30T11:46:22.308Z,75.30
2022-11-30T11:49:38.129Z,75.19
2022-11-30T11:52:41.374Z,73.65
2022-11-30T11:55:45.051Z,73.62
2022-11-30T11:58:51.764Z,74.78
2022-11-30T12:01:58.483Z,72.82
2022-11-30T12:05:07.902Z,73.12
2022-11-30T12:08:26.230Z,69.62
2022-11-30T12:11:38.939Z,72.20
2022-11-30T12:14:41.391Z,70.76
2022-11-30T12:17:50.382Z,71.10
2022-11-30T12:20:58.591Z,72.97
2022-11-30T12:24:20.282Z,73.42
2022-11-30T12:27:42.592Z,72.82
2022-11-30T12:30:54.438Z,72.13
2022-11-30T12:34:10.696Z,73.19
2022-11-30T12:37:20.107Z,73.22
2022-11-30T12:40:52.982Z,74.30
2022-11-30T12:43:57.188Z,75.60
2022-11-30T12:47:00.369Z,74.22
2022-11-30T12:50:22.979Z,75.22
2022-11-30T12:53:33.013Z,74.06
2022-11-30T12:56:48.124Z,72.98
2022-11-30T13:00:07.568Z,73.73
2022-11-30T13:03:24.760Z,76.05
2022-11-30T13:06:33.225Z,76.32
2022-11-30T13:09:49.679Z,76.26
2022-11-30T13:12:53.748Z,76.29
2022-11-30T13:15:59.857Z,76.29
2022-11-30T13:19:29.912Z,78.63
2022-11-30T13:22:42.790Z,78.43
2022-11-30T13:26:08.651Z,79.49
2022-11-30T13:29:45.230Z,79.29
2022-11-30T13:32:57.883Z,79.83
2022-11-30T13:36:05.775Z,79.57
2022-11-30T13:39:15.187Z,79.55
2022-11-30T13:42:38.937Z,77.43
2022-11-30T13:45:42.595Z,77.30
2022-11-30T13:48:46.240Z,73.12
2022-11-30T13:52:13.688Z,71.45
2022-11-30T13:55:33.647Z,71.68
2022-11-30T13:58:57.978Z,71.45
2022-11-30T14:02:20.014Z,69.89
2022-11-30T14:05:25.602Z,70.21
2022-11-30T14:08:31.586Z,70.70
2022-11-30T14:11:40.566Z,69.86
2022-11-30T14:14:46.350Z,71.01
2022-11-30T14:17:57.479Z,69.35
2022-11-30T14:21:04.000Z,70.96
2022-11-30T14:24:16.858Z,70.12
2022-11-30T14:27:28.308Z,70.36
2022-11-30T14:30:33.661Z,69.35
2022-11-30T14:33:42.200Z,68.61
2022-11-30T14:36:51.056Z,66.51
2022-11-30T14:39:58.596Z,67.74
2022-11-30T14:43:03.212Z,67.37
2022-11-30T14:46:10.286Z,66.96
2022-11-30T14:49:17.958Z,66.64
2022-11-30T14:52:26.147Z,68.53
2022-11-30T14:55:41.052Z,67.46
2022-11-30T14:58:44.488Z,67.76
2022-11-30T15:01:48.709Z,68.20
2022-11-30T15:04:53.690Z,68.40
2022-11-30T15:07:57.676Z,69.45
2022-11-30T15:11:20.481Z,70.14
2022-11-30T15:14:25.172Z,70.34
2022-11-30T15:17:28.960Z,68.74
2022-11-30T15:20:40.102Z,69.05
2022-11-30T15:23:50.679Z,68.69
2022-11-30T15:27:08.766Z,68.44
2022-11-30T15:30:15.577Z,68.78
2022-11-30T15:33:21.298Z,69.42
2022-11-30T15:36:33.381Z,69.95
2022-11-30T15:39:39.378Z,70.33
2022-11-30T15:42:47.596Z,71.65
2022-11-30T15:45:59.612Z,72.20
2022-11-30T15:49:06.619Z,72.78
2022-11-30T15:52:15.209Z,72.99
2022-11-30T15:55:38.540Z,73.95
2022-11-30T15:58:46.709Z,82.91
2022-11-30T16:02:05.109Z,85.66
2022-11-30T16:05:16.398Z,86.61
2022-11-30T16:08:21.419Z,86.68
2022-11-30T16:11:26.996Z,86.57
2022-11-30T16:14:34.064Z,89.66
2022-11-30T16:17:39.372Z,89.79
2022-11-30T16:20:45.293Z,89.90
2022-11-30T16:23:49.969Z,90.21
2022-11-30T16:26:53.775Z,89.87
2022-11-30T16:29:58.404Z,89.63
2022-11-30T16:33:02.877Z,92.28
2022-11-30T16:36:09.429Z,90.97
2022-11-30T16:39:15.260Z,91.63
2022-11-30T16:42:19.790Z,92.24
2022-11-30T16:45:26.428Z,92.40
2022-11-30T16:48:33.067Z,92.37
2022-11-30T16:51:39.251Z,93.30
2022-11-30T16:54:46.897Z,93.31
2022-11-30T16:57:54.883Z,92.85
2022-11-30T17:01:02.176Z,93.47
2022-11-30T17:04:17.983Z,93.77
2022-11-30T17:07:26.217Z,94.10
2022-11-30T17:10:34.303Z,93.17
2022-11-30T17:13:39.527Z,93.52
2022-11-30T17:16:46.690Z,93.61
2022-11-30T17:19:55.423Z,92.40
2022-11-30T17:23:05.090Z,92.94
2022-11-30T17:26:12.067Z,92.81
2022-11-30T17:29:19.026Z,93.14
2022-11-30T17:32:24.344Z,94.43
2022-11-30T17:35:31.819Z,95.39
2022-11-30T17:38:36.830Z,95.58
2022-11-30T17:41:43.197Z,95.80
2022-11-30T17:44:50.851Z,100.00
2022-11-30T17:47:55.670Z,97.83
2022-11-30T17:51:01.694Z,96.10
2022-11-30T17:54:06.685Z,96.09
2022-11-30T17:57:11.734Z,95.95
2022-11-30T18:00:17.146Z,96.18
2022-11-30T18:03:26.351Z,95.45
2022-11-30T18:06:32.106Z,95.21
2022-11-30T18:09:43.104Z,95.08
2022-11-30T18:12:52.225Z,96.69
2022-11-30T18:16:08.789Z,97.11
2022-11-30T18:19:16.351Z,97.12
2022-11-30T18:22:23.222Z,98.65
2022-11-30T18:25:31.364Z,98.06
2022-11-30T18:28:38.648Z,97.69
2022-11-30T18:31:46.582Z,96.91
2022-11-30T18:34:53.842Z,96.74
2022-11-30T18:37:59.441Z,97.07
2022-11-30T18:41:06.455Z,98.22
2022-11-30T18:44:14.298Z,99.06
2022-11-30T18:47:21.684Z,100.00
2022-11-30T18:50:27.851Z,99.88
2022-11-30T18:53:35.372Z,98.64
2022-11-30T18:56:41.786Z,98.95
2022-11-30T18:59:48.705Z,98.71
2022-11-30T19:02:56.603Z,99.24
2022-11-30T19:06:05.101Z,100.00
2022-11-30T19:09:15.052Z,100.00
2022-11-30T19:12:20.061Z,99.99
2022-11-30T19:15:24.574Z,99.67
2022-11-30T19:18:28.070Z,100.00
2022-11-30T19:21:33.518Z,100.00
2022-11-30T19:24:38.699Z,100.00
2022-11-30T19:27:44.687Z,99.52
2022-11-30T19:30:50.177Z,99.75
2022-11-30T19:33:56.355Z,98.34
2022-11-30T19:37:04.978Z,98.87
2022-11-30T19:40:09.909Z,99.58
2022-11-30T19:43:17.740Z,100.00
2022-11-30T19:46:23.678Z,100.00
2022-11-30T19:49:29.773Z,100.00
2022-11-30T19:52:35.852Z,100.00
2022-11-30T19:55:42.503Z,100.00
2022-11-30T19:58:48.095Z,100.00
2022-11-30T20:01:55.830Z,100.00
2022-11-30T20:05:01.851Z,100.00
2022-11-30T20:08:06.989Z,100.00
2022-11-30T20:11:14.809Z,100.00
2022-11-30T20:14:24.813Z,100.00
2022-11-30T20:17:29.828Z,100.00
2022-11-30T20:20:38.773Z,100.00
2022-11-30T20:23:49.382Z,100.00
2022-11-30T20:26:55.767Z,100.00
2022-11-30T20:30:02.999Z,100.00
2022-11-30T20:33:09.631Z,100.00
2022-11-30T20:36:16.476Z,100.00
2022-11-30T20:39:23.496Z,100.00
2022-11-30T20:42:27.489Z,100.00
2022-11-30T20:45:34.626Z,100.00
2022-11-30T20:48:41.749Z,100.00
2022-11-30T20:51:47.723Z,100.00
2022-11-30T20:54:55.457Z,100.00
2022-11-30T20:58:02.485Z,100.00
2022-11-30T21:01:14.284Z,100.00
2022-11-30T21:04:20.823Z,100.00
2022-11-30T21:07:28.024Z,100.00
2022-11-30T21:10:38.358Z,100.00
2022-11-30T21:13:49.337Z,100.00
2022-11-30T21:16:56.357Z,100.00
2022-11-30T21:20:04.963Z,100.00
2022-11-30T21:23:08.702Z,100.00
2022-11-30T21:26:16.185Z,100.00
2022-11-30T21:29:21.492Z,100.00
2022-11-30T21:32:24.677Z,100.00
2022-11-30T21:35:29.201Z,100.00
2022-11-30T21:38:36.355Z,100.00
2022-11-30T21:41:41.392Z,100.00
2022-11-30T21:44:47.643Z,100.00
2022-11-30T21:47:52.367Z,100.00
2022-11-30T21:51:00.694Z,100.00
2022-11-30T21:54:07.194Z,100.00
2022-11-30T21:57:12.470Z,100.00
2022-11-30T22:00:18.925Z,100.00
2022-11-30T22:03:25.753Z,100.00
2022-11-30T22:06:32.696Z,100.00
2022-11-30T22:09:38.057Z,100.00
2022-11-30T22:12:45.719Z,100.00
2022-11-30T22:15:58.978Z,100.00
2022-11-30T22:19:07.663Z,100.00
2022-11-30T22:22:14.796Z,100.00
2022-11-30T22:25:24.060Z,100.00
2022-11-30T22:28:31.264Z,100.00
2022-11-30T22:31:37.318Z,100.00
2022-11-30T22:34:43.091Z,100.00
2022-11-30T22:37:49.015Z,100.00
2022-11-30T22:40:58.351Z,100.00
2022-11-30T22:44:05.151Z,100.00
2022-11-30T22:47:09.105Z,100.00
2022-11-30T22:50:14.579Z,100.00
2022-11-30T22:53:18.569Z,100.00
2022-11-30T22:56:26.567Z,100.00
2022-11-30T22:59:31.670Z,100.00
2022-11-30T23:02:35.879Z,100.00
2022-11-30T23:05:44.726Z,100.00
2022-11-30T23:08:52.762Z,100.00
2022-11-30T23:11:58.150Z,100.00
2022-11-30T23:15:03.399Z,100.00
2022-11-30T23:18:07.552Z,100.00
2022-11-30T23:21:14.390Z,100.00
2022-11-30T23:24:21.326Z,100.00
2022-11-30T23:27:25.629Z,100.00
2022-11-30T23:30:31.863Z,100.00
2022-11-30T23:33:37.466Z,100.00
2022-11-30T23:36:43.312Z,100.00
2022-11-30T23:39:48.832Z,100.00
2022-11-30T23:42:54.685Z,100.00
2022-11-30T23:45:57.308Z,100.00
2022-11-30T23:49:04.077Z,100.00
2022-11-30T23:52:09.941Z,100.00
2022-11-30T23:55:15.305Z,100.00
2022-11-30T23:58:23.199Z,100.00
